• Join FlightAware (Why Join?)
  • Login
  • US Flag 
01:35PM EDT


 

Airport Tracker/Info


-or-


 

Live Flight TrackerFlight Track Log ✈ N27XP ✈ 03-Jun-2013 ✈ KSOP - KGGE

Flight Track Log - Related Links

Times and Time Zones

All times are in EDT time to prevent confusion due to time zone crossing. See the N27XP flight status page for this flight to view local times or setup timezone preferences in your user account.

Time Position Orientation Groundspeed Altitude Reporting Facility
EDT Latitude Longitude Course Direction KTS MPH feet Rate Location/Type
08:25AM 35.1933 -79.4272 180° South 205 236 2,600  Level Washington Center
08:26AM 35.1222 -79.4264 179° South 245 282 5,100 2,700 Climbing Washington Center
08:27AM 35.0453 -79.4203 176° South 274 315 8,000 2,340 Climbing Washington Center
08:28AM 34.9744 -79.4194 179° South 279 321 9,800 1,620 Climbing Washington Center
08:29AM 34.8786 -79.4125 177° South 300 345 11,300 720 Climbing Washington Center
08:31AM 34.8343 -79.3667 180° South  Level FlightAware Approximate
08:31AM 34.6831 -79.4008 177° South 333 383 12,000  Level Jacksonville Center
08:32AM 34.5908 -79.3894 174° South 333 383 12,000  Level Jacksonville Center
08:33AM 34.4950 -79.3908 181° South 333 383 12,000  Level Jacksonville Center
08:34AM 34.3967 -79.3822 176° South 346 398 12,000  Level Jacksonville Center
08:35AM 34.2986 -79.3736 176° South 351 404 12,000  Level Jacksonville Center
08:36AM 34.2022 -79.3625 175° South 351 404 12,000 -180 Level Jacksonville Center
08:37AM 34.1061 -79.3589 178° South 351 404 11,700 -660 Descending Jacksonville Center
08:38AM 34.0100 -79.3528 177° South 351 404 10,700 -1,200 Descending Jacksonville Center
08:39AM 33.9233 -79.3161 161° South 343 395 9,300 -1,380 Descending Jacksonville Center
08:40AM 33.8450 -79.2769 157° South 326 375 8,000 -1,680 Descending Jacksonville Center
08:41AM 33.7689 -79.2400 158° South 304 350 6,000 -1,560 Descending Jacksonville Center
08:42AM 33.7103 -79.2275 170° South 287 330 4,900 -1,080 Descending Jacksonville Center
08:43AM 33.6392 -79.2231 177° South 256 295 3,900 -960 Descending Jacksonville Center
08:44AM 33.5661 -79.2211 179° South 256 295 3,000 -1,080 Descending Jacksonville Center
08:45AM 33.4908 -79.2242 182° South 256 295 1,800 -1,200 Descending Jacksonville Center
08:47AM 33.4129 -79.2551 205° Southwest  Level FlightAware Approximate
08:54AM 33.3114 -79.3203 205° Southwest  Level Estimated
08:55AM 33.3114 -79.3203 205° Southwest  Level Estimated
08:56AM 33.3114 -79.3203 205° Southwest  Level Estimated